Tiempo atmosférico en la estación meteorológica de Montanejos, Castelló/Castellón (601 m.)



Fecha
DESCASC
Temp. máxima en grados centígrados (hora)
DESCASC
Temp. mínima en grados centígrados (hora)
DESCASC
Temp. media en grados centígrados
DESCASC
Racha de viento máxima en m/sg (hora)
DESCASC
Velocidad máxima media en intervalos de 10 minutos(hora)
DESCASC
Precipitaciones diarias en mm
DESCASC
Precipitaciones de 00:00 a 06:00 en mm
DESCASC
Precipitaciones de 06:00 a 12:00 en mm
DESCASC
Precipitaciones de 12:00 a 18:00 en mm
DESCASC
Precipitaciones de 18:00 a 24:00 en mm
DESCASC
17-01-2021 -- (--) -- (--) -- -- (--) -- (--) -- 0 0 0 --
07-01-2021 -- (--) -- (--) -- -- (--) -- (--) -- 0 0 3.2 --
12-01-2021 -- (--) -- (--) -- -- (--) -- (--) -- 0.2 -- 0 0
26-01-2021 15.7 (14:40) 4.7 (00:00) 10.2 12.22 (00:20) 7.78 (13:00) 0 0 0 0 0
24-01-2021 -- (--) -- (--) -- -- (--) -- (--) -- 0 0 -- 0
23-01-2021 13.7 (23:50) 7.3 (00:00) 10.5 21.11 (03:50) 12.22 (23:30) 0.4 0 0 0.4 0
22-01-2021 13.8 (03:00) 7.3 (00:00) 10.6 23.89 (08:40) 13.33 (08:40) 7 0 6.6 0.4 0
21-01-2021 13.8 (14:40) 4.4 (00:00) 9.1 15 (11:50) 8.06 (14:20) 0 0 0 0 0
20-01-2021 10.5 (17:10) 0.5 (00:00) 5.5 8.89 (14:10) 4.44 (14:10) 0 0 0 0 0
19-01-2021 13.5 (14:50) -0.2 (00:00) 6.6 5.56 (15:40) 3.33 (15:00) 0 0 0 0 0
18-01-2021 -- (--) -- (--) -- -- (--) -- (--) -- 0 0 -- 0
16-01-2021 11.2 (15:30) 0.7 (00:00) 5.9 16.39 (00:50) 11.39 (00:50) 0 0 0 0 0
15-01-2021 9.8 (15:30) 6.1 (00:00) 8 15 (20:30) 8.89 (11:30) 0 0 0 0 0
14-01-2021 12.1 (15:20) 0.5 (00:30) 6.3 10.83 (22:20) 6.67 (22:20) 0 0 0 0 0
13-01-2021 10.2 (15:40) 1 (00:00) 5.6 8.61 (06:10) 4.72 (06:10) 0 0 0 0 0
28-12-2020 9.7 (15:00) 4.5 (00:00) 7.1 20 (10:40) 11.94 (04:30) 3 0 3 0 0
11-01-2021 2.9 (13:20) -0.5 (-00:0) 1.2 7.78 (14:30) 4.72 (14:20) 3.4 0 0.4 3 0
06-01-2021 8.8 (14:30) -3.7 (-00:0) 2.6 7.22 (17:20) 4.17 (17:20) 0 0 0 0 0
05-01-2021 6.9 (15:00) -1.3 (-00:0) 2.8 10 (13:50) 5.83 (05:50) 0 0 0 0 0
04-01-2021 6.9 (15:00) -0.9 (-00:0) 3 11.39 (11:40) 6.67 (14:30) 0 0 0 0 0
03-01-2021 7 (15:10) 1.2 (00:00) 4.1 15.56 (08:00) 10.28 (14:10) 0 0 0 0 0
02-01-2021 5.3 (15:00) 1 (00:00) 3.2 17.5 (23:40) 10.83 (15:40) 0 0 0 0 0
01-01-2021 6.9 (15:00) 2.7 (00:00) 4.8 15 (16:10) 9.17 (11:40) 0 0 0 0 0
31-12-2020 12 (15:10) 2.8 (00:00) 7.4 12.22 (01:20) 6.11 (02:30) 0 0 0 0 0
30-12-2020 8.4 (14:30) 3.5 (00:00) 5.9 19.17 (07:30) 11.11 (08:10) 0 0 0 0 0
29-12-2020 9.2 (14:20) 5.2 (00:00) 7.2 18.33 (23:30) 10 (10:50) 0 0 0 0 0
25-01-2021 16.7 (16:00) 4.1 (00:00) 10.4 16.67 (14:30) 8.33 (23:59) 0.4 0 0 0 0.4
10-01-2021 4.2 (15:10) 0.3 (05:50) 2.2 4.72 (09:10) 2.78 (09:10) 14.2 0.4 1.8 10.8 1.2
08-01-2021 1.3 (10:30) 0 (00:00) 0.6 3.89 (22:00) 2.22 (19:30) 8.8 1.2 2 4 1.6
09-01-2021 1.6 (21:50) -0.1 (00:00) 0.8 2.78 (21:50) 1.39 (21:50) 14.4 0.6 1.2 8.4 4.2

Gráficas

Temp. máximas Temp. mínimas Temp. medias Precipitaciones Rachas de viento máximas Velocidades máximas media en intervalos de 10 minutos

Datos horarios

Fecha y hora oficial Temperatura (ºC) Velocidad del viento (km/h) Dirección del viento Racha (km/h) Dirección de racha Precipitación (mm) Presión (hPa) Tendencia (hPa) Humedad (%)
2021-01-26 23:00:00 12.5 11 Noroeste 21 Norte 0 -- -- 79
2021-01-26 22:00:00 12.6 6 Norte 15 Noroeste 0 -- -- 76
2021-01-26 21:00:00 11.8 3 Norte 11 Noroeste 0 -- -- 77
2021-01-26 20:00:00 9.7 2 Sur 6 Sudoeste 0 -- -- 89
2021-01-26 19:00:00 10.4 3 Sur 19 Este 0 -- -- 85
2021-01-26 18:00:00 12 10 Este 18 Este 0 -- -- 78
2021-01-26 17:00:00 14.7 2 Oeste 21 Oeste 0 -- -- 67
2021-01-26 16:00:00 15.5 12 Noroeste 30 Noroeste 0 -- -- 60
2021-01-26 15:00:00 15.4 19 Noroeste 30 Noroeste 0 -- -- 59
2021-01-26 14:00:00 14.9 9 Noroeste 39 Noroeste 0 -- -- 61
2021-01-26 13:00:00 14.5 28 Noroeste 44 Noroeste 0 -- -- 60
2021-01-26 12:00:00 14.1 6 Sudeste 11 Sudeste 0 -- -- 58
2021-01-26 11:00:00 10.9 3 Sur 6 Sur 0 -- -- 65
2021-01-26 10:00:00 6.4 0 Calma 6 Norte 0 -- -- 83
2021-01-26 09:00:00 4.9 3 Norte 6 Norte 0 -- -- 88
2021-01-26 08:00:00 4.8 0 Calma 4 Oeste 0 -- -- 86
2021-01-26 07:00:00 5.4 0 Calma 6 Noroeste 0 -- -- 85
2021-01-26 06:00:00 6.9 4 Norte 17 Noroeste 0 -- -- 81
2021-01-26 05:00:00 7.8 9 Norte 18 Oeste 0 -- -- 76
2021-01-26 04:00:00 8.8 10 Noroeste 24 Oeste 0 -- -- 70
2021-01-26 03:00:00 9 14 Noroeste 33 Oeste 0 -- -- 69
2021-01-26 02:00:00 9.4 12 Noroeste 24 Noroeste 0 -- -- 67
2021-01-26 01:00:00 9.5 8 Noroeste 44 Noroeste 0 -- -- 66
2021-01-26 00:00:00 9.8 30 Noroeste 45 Noroeste 0.2 -- -- 62
2021-01-25 23:00:00 10.3 18 Noroeste 35 Noroeste 0 -- -- 62
2021-01-25 22:00:00 11.2 17 Norte 34 Oeste 0 -- -- 63
2021-01-25 21:00:00 12 21 Noroeste 49 Noroeste 0 -- -- 65
2021-01-25 20:00:00 12.3 22 Noroeste 40 Noroeste 0.2 -- -- 68
2021-01-25 19:00:00 13.2 21 Noroeste 36 Noroeste 0 -- -- 68
2021-01-25 18:00:00 13.7 13 Noroeste 39 Norte 0 -- -- 74
2021-01-25 17:00:00 16.2 21 Noroeste 40 Noroeste 0 -- -- 59
2021-01-25 16:00:00 16.7 19 Noroeste 53 Noroeste 0 -- -- 55
2021-01-25 15:00:00 15.9 29 Noroeste 60 Noroeste 0 -- -- 58
2021-01-25 14:00:00 15.5 23 Noroeste 44 Oeste 0 -- -- 58
2021-01-25 13:00:00 15.6 13 Noroeste 26 Noroeste 0 -- -- 58
2021-01-25 12:00:00 12.4 4 Noroeste 9 Noroeste 0 -- -- 70
2021-01-25 11:00:00 8.1 0 Calma 9 Noroeste 0 -- -- 85
2021-01-25 10:00:00 6.4 0 Calma 8 Norte 0 -- -- 88
2021-01-25 09:00:00 5.3 3 Norte 5 Este 0 -- -- 90
2021-01-25 08:00:00 5.3 0 Calma 5 Noroeste 0 -- -- 88
2021-01-25 07:00:00 5.2 0 Calma 5 Sur 0 -- -- 88
2021-01-25 06:00:00 4.9 3 Norte 9 Noroeste 0 -- -- 87
2021-01-25 05:00:00 4.6 0 Calma 8 Nordeste 0 -- -- 89
2021-01-25 04:00:00 4.1 2 Sur 4 Sudoeste 0 -- -- 87
2021-01-25 03:00:00 4.4 0 Calma 4 Norte 0 -- -- 85
2021-01-25 02:00:00 4.3 0 Calma 8 Norte 0 -- -- 82
2021-01-25 01:00:00 4.8 0 Calma 7 Sudeste 0 -- -- 79
2021-01-25 00:00:00 5.5 4 Este 6 Este 0 -- -- 80
2021-01-24 23:00:00 7 0 Calma 10 Noroeste 0 -- -- 70
2021-01-24 22:00:00 8.6 5 Noroeste 22 Noroeste 0 -- -- 62
2021-01-24 21:00:00 9.1 4 Norte 25 Noroeste 0 -- -- 58
2021-01-24 20:00:00 10.2 9 Noroeste 19 Noroeste 0 -- -- 53
2021-01-24 19:00:00 10.7 8 Noroeste 20 Noroeste 0 -- -- 51
2021-01-24 18:00:00 12.3 8 Noroeste 19 Oeste 0 -- -- 44
2021-01-24 17:00:00 13.1 10 Noroeste 39 Oeste 0 -- -- 41
2021-01-24 16:00:00 -- -- -- -- -- -- -- -- --
2021-01-24 15:00:00 13.7 29 Noroeste 60 Noroeste 0 -- -- 41
2021-01-24 14:00:00 13.3 26 Noroeste 71 Noroeste 0 -- -- 42
2021-01-24 13:00:00 12.3 39 Noroeste 63 Noroeste 0 -- -- 46
2021-01-24 12:00:00 11.7 43 Noroeste 78 Noroeste 0 -- -- 49
2021-01-24 11:00:00 11.6 41 Noroeste 68 Noroeste 0 -- -- 52
2021-01-24 10:00:00 11.2 27 Noroeste 46 Norte 0 -- -- 55
2021-01-24 09:00:00 10.8 26 Noroeste 51 Noroeste 0 -- -- 53
2021-01-24 08:00:00 11.1 27 Noroeste 58 Noroeste 0 -- -- 50
2021-01-24 07:00:00 11.7 28 Noroeste 59 Noroeste 0 -- -- 48
2021-01-24 06:00:00 12.2 26 Noroeste 54 Oeste 0 -- -- 50
2021-01-24 05:00:00 12.8 31 Noroeste 49 Noroeste 0 -- -- 53
2021-01-24 04:00:00 13.8 27 Noroeste 62 Noroeste 0 -- -- 55
2021-01-24 03:00:00 14 39 Noroeste 67 Noroeste 0 -- -- 64
2021-01-24 02:00:00 14.5 37 Noroeste 62 Noroeste 0 -- -- 62
2021-01-24 01:00:00 13.7 28 Noroeste 50 Noroeste 0 -- -- 63
2021-01-24 00:00:00 13.5 32 Noroeste 63 Noroeste 0 -- -- 63
2021-01-23 23:00:00 12.7 42 Noroeste 60 Noroeste 0 -- -- 64
2021-01-23 22:00:00 11.9 40 Noroeste 59 Noroeste 0 -- -- 64
2021-01-23 21:00:00 11.5 38 Noroeste 69 Noroeste 0 -- -- 63
2021-01-23 20:00:00 10.4 28 Noroeste 65 Noroeste 0 -- -- 65
2021-01-23 19:00:00 10.2 22 Noroeste 44 Noroeste 0 -- -- 64
2021-01-23 18:00:00 10.1 14 Noroeste 48 Oeste 0 -- -- 61
2021-01-23 17:00:00 9.3 19 Noroeste 59 Noroeste 0.4 -- -- 66
2021-01-23 16:00:00 10.4 38 Noroeste 63 Noroeste 0 -- -- 57
2021-01-23 15:00:00 11.4 31 Noroeste 58 Noroeste 0 -- -- 49
2021-01-23 14:00:00 10.5 29 Noroeste 50 Noroeste 0 -- -- 52
2021-01-23 13:00:00 10 24 Noroeste 57 Noroeste 0 -- -- 52
2021-01-23 12:00:00 9.9 27 Noroeste 54 Oeste 0 -- -- 53
2021-01-23 11:00:00 9 26 Noroeste 53 Noroeste 0 -- -- 55
2021-01-23 10:00:00 7.8 24 Noroeste 43 Noroeste 0 -- -- 57
2021-01-23 09:00:00 7.5 29 Noroeste 48 Noroeste 0 -- -- 57
2021-01-23 08:00:00 7.3 23 Noroeste 46 Noroeste 0 -- -- 57
2021-01-23 07:00:00 7.5 28 Noroeste 49 Noroeste 0 -- -- 56
2021-01-23 06:00:00 7.6 26 Noroeste 50 Oeste 0 -- -- 55
2021-01-23 05:00:00 7.7 18 Noroeste 50 Noroeste 0 -- -- 56
2021-01-23 04:00:00 8 33 Noroeste 76 Noroeste 0 -- -- 56
2021-01-23 03:00:00 8 37 Noroeste 65 Noroeste 0 -- -- 56
2021-01-23 02:00:00 8 43 Noroeste 74 Noroeste 0 -- -- 57
2021-01-23 01:00:00 8.3 35 Noroeste 67 Noroeste 0 -- -- 54
2021-01-23 00:00:00 8.7 36 Noroeste 66 Oeste 0 -- -- 53
2021-01-22 23:00:00 8.7 29 Noroeste 57 Noroeste 0 -- -- 55
2021-01-22 22:00:00 8.9 33 Noroeste 60 Noroeste 0 -- -- 55
2021-01-22 21:00:00 9.4 39 Noroeste 63 Oeste 0 -- -- 53
2021-01-22 20:00:00 9.4 32 Noroeste 55 Oeste 0 -- -- 54
2021-01-22 19:00:00 9.9 30 Noroeste 53 Noroeste 0 -- -- 50
2021-01-22 18:00:00 10 26 Noroeste 50 Oeste 0 -- -- 55
2021-01-22 17:00:00 10.4 24 Noroeste 50 Noroeste 0 -- -- 54
2021-01-22 16:00:00 10.5 29 Noroeste 59 Oeste 0 -- -- 57
2021-01-22 15:00:00 10.2 26 Noroeste 50 Noroeste 0.4 -- -- 61
2021-01-22 14:00:00 11.5 29 Noroeste 61 Noroeste 0 -- -- 50
2021-01-22 13:00:00 11.4 37 Noroeste 60 Noroeste 0 -- -- 53
2021-01-22 12:00:00 10.9 34 Noroeste 58 Noroeste 0 -- -- 57
2021-01-22 11:00:00 9.6 15 Noroeste 37 Noroeste 0 -- -- 67
2021-01-22 10:00:00 8.3 10 Norte 65 Noroeste 2.2 -- -- 83
2021-01-22 09:00:00 8.1 43 Noroeste 86 Noroeste 4.4 -- -- 90
2021-01-22 08:00:00 13.3 15 Norte 44 Norte 0 -- -- 68
2021-01-22 07:00:00 13 24 Noroeste 46 Noroeste 0 -- -- 67
2021-01-22 06:00:00 12.4 2 Este 21 Noroeste 0 -- -- 71
2021-01-22 05:00:00 12.7 9 Noroeste 19 Noroeste 0 -- -- 70
2021-01-22 04:00:00 13.4 10 Noroeste 43 Noroeste 0 -- -- 65
2021-01-22 03:00:00 13.8 24 Noroeste 45 Noroeste 0 -- -- 63
2021-01-22 02:00:00 13 17 Noroeste 44 Noroeste 0 -- -- 67
2021-01-22 01:00:00 13 11 Oeste 28 Noroeste 0 -- -- 65
2021-01-22 00:00:00 12.5 12 Oeste 24 Oeste 0 -- -- 68
2021-01-21 23:00:00 12.4 9 Noroeste 31 Noroeste 0 -- -- 67
2021-01-21 22:00:00 12.7 11 Sudoeste 26 Sudoeste 0 -- -- 65
2021-01-21 21:00:00 11.9 0 Calma 15 Oeste 0 -- -- 66
2021-01-21 20:00:00 12.5 10 Noroeste 21 Noroeste 0 -- -- 64
2021-01-21 19:00:00 12.3 16 Noroeste 30 Noroeste 0 -- -- 64
2021-01-21 18:00:00 12.3 13 Oeste 30 Oeste 0 -- -- 62
2021-01-21 17:00:00 12.6 15 Noroeste 36 Noroeste 0 -- -- 59
2021-01-21 16:00:00 13.3 8 Sudoeste 31 Norte 0 -- -- 52
2021-01-21 15:00:00 13.6 19 Noroeste 46 Noroeste 0 -- -- 52
2021-01-21 14:00:00 13.4 26 Noroeste 41 Noroeste 0 -- -- 56
2021-01-21 13:00:00 13.2 21 Noroeste 44 Noroeste 0 -- -- 54
2021-01-21 12:00:00 12.9 27 Noroeste 54 Oeste 0 -- -- 57
2021-01-21 11:00:00 12.2 18 Noroeste 46 Noroeste 0 -- -- 59
2021-01-21 10:00:00 11.5 21 Noroeste 40 Oeste 0 -- -- 61
2021-01-21 09:00:00 8.9 5 Norte 22 Noroeste 0 -- -- 72
2021-01-21 08:00:00 8.1 9 Norte 17 Noroeste 0 -- -- 78
2021-01-21 07:00:00 4.4 0 Calma 6 Noroeste 0 -- -- 92
2021-01-21 06:00:00 5.1 2 Noroeste 6 Noroeste 0 -- -- 90
2021-01-21 05:00:00 5.7 2 Nordeste 13 Noroeste 0 -- -- 88
2021-01-21 04:00:00 6.7 6 Norte 9 Noroeste 0 -- -- 86
2021-01-21 03:00:00 6.3 2 Sudoeste 7 Noroeste 0 -- -- 86
2021-01-21 02:00:00 7.3 3 Sur 14 Norte 0 -- -- 81
2021-01-21 01:00:00 8.4 3 Nordeste 14 Noroeste 0 -- -- 78
2021-01-21 00:00:00 9 3 Sur 20 Noroeste 0 -- -- 76
2021-01-20 23:00:00 6.7 0 Calma 8 Norte 0 -- -- 86
2021-01-20 22:00:00 7.2 3 Nordeste 11 Noroeste 0 -- -- 83
2021-01-20 21:00:00 7.9 2 Sudeste 8 Noroeste 0 -- -- 80
2021-01-20 20:00:00 9.3 7 Noroeste 19 Oeste 0 -- -- 73
2021-01-20 19:00:00 9.1 3 Sudoeste 14 Norte 0 -- -- 74
2021-01-20 18:00:00 9.8 6 Norte 21 Noroeste 0 -- -- 71
2021-01-20 17:00:00 10.2 3 Noroeste 13 Noroeste 0 -- -- 71
2021-01-20 16:00:00 9.7 9 Noroeste 22 Noroeste 0 -- -- 70
2021-01-20 15:00:00 9.2 15 Norte 32 Noroeste 0 -- -- 68
2021-01-20 14:00:00 9.6 16 Noroeste 28 Noroeste 0 -- -- 65
2021-01-20 13:00:00 7.2 3 Sur 9 Noroeste 0 -- -- 68
2021-01-20 12:00:00 5.4 0 Calma 11 Noroeste 0 -- -- 72
2021-01-20 11:00:00 4.5 4 Oeste 19 Noroeste 0 -- -- 72
2021-01-20 10:00:00 2.3 3 Noroeste 12 Noroeste 0 -- -- 78
2021-01-20 09:00:00 1 3 Noroeste 13 Noroeste 0 -- -- 81
2021-01-20 08:00:00 0.7 4 Noroeste 12 Norte 0 -- -- 81
2021-01-20 07:00:00 0.6 3 Noroeste 9 Norte 0 -- -- 82
2021-01-20 06:00:00 0.6 6 Noroeste 17 Noroeste 0 -- -- 83
2021-01-20 05:00:00 0.7 6 Noroeste 13 Noroeste 0 -- -- 83
2021-01-20 04:00:00 1.1 4 Noroeste 15 Noroeste 0 -- -- 83
2021-01-20 03:00:00 1.4 6 Noroeste 14 Noroeste 0 -- -- 83
2021-01-20 02:00:00 2.1 9 Noroeste 17 Noroeste 0 -- -- 80
2021-01-20 01:00:00 2.4 8 Noroeste 18 Noroeste 0 -- -- 81
2021-01-20 00:00:00 2.8 3 Noroeste 8 Noroeste 0 -- -- 84
2021-01-19 23:00:00 3.1 2 Noroeste 9 Noroeste 0 -- -- 88
2021-01-19 22:00:00 3.6 0 Calma 7 Norte 0 -- -- 89
2021-01-19 21:00:00 4.4 2 Noroeste 5 Norte 0 -- -- 90
2021-01-19 20:00:00 5.6 2 Norte 5 Norte 0 -- -- 87
2021-01-19 19:00:00 7.2 3 Norte 10 Sudeste 0 -- -- 81
2021-01-19 18:00:00 9.8 6 Sudeste 12 Sur 0 -- -- 71
2021-01-19 17:00:00 11 5 Sudeste 14 Sur 0 -- -- 66
2021-01-19 16:00:00 12.3 10 Sur 20 Sur 0 -- -- 59
2021-01-19 15:00:00 13.5 12 Sur 18 Sur 0 -- -- 52
2021-01-19 14:00:00 11 2 Noroeste 12 Sudoeste 0 -- -- 47
2021-01-19 13:00:00 9 0 Calma 4 Norte 0 -- -- 51
2021-01-19 12:00:00 -- -- -- -- -- -- -- -- --
2021-01-19 11:00:00 -- -- -- -- -- -- -- -- --
2021-01-19 10:00:00 -- -- -- -- -- -- -- -- --
2021-01-19 09:00:00 -- -- -- -- -- -- -- -- --
2021-01-19 08:00:00 -- -- -- -- -- -- -- -- --
2021-01-19 07:00:00 -- -- -- -- -- -- -- -- --
2021-01-19 06:00:00 -- -- -- -- -- -- -- -- --
2021-01-19 05:00:00 -- -- -- -- -- -- -- -- --
2021-01-19 04:00:00 -- -- -- -- -- -- -- -- --
2021-01-19 03:00:00 -- -- -- -- -- -- -- -- --
2021-01-19 02:00:00 -- -- -- -- -- -- -- -- --
2021-01-19 01:00:00 -- -- -- -- -- -- -- -- --
2021-01-19 00:00:00 -- -- -- -- -- -- -- -- --
2021-01-18 23:00:00 -- -- -- -- -- -- -- -- --
2021-01-18 22:00:00 -- -- -- -- -- -- -- -- --
2021-01-18 21:00:00 -- -- -- -- -- -- -- -- --
2021-01-18 20:00:00 -- -- -- -- -- -- -- -- --
2021-01-18 19:00:00 -- -- -- -- -- -- -- -- --
2021-01-18 18:00:00 -- -- -- -- -- -- -- -- --
2021-01-18 17:00:00 -- -- -- -- -- -- -- -- --
2021-01-18 16:00:00 -- -- -- -- -- -- -- -- --
2021-01-18 15:00:00 -- -- -- -- -- -- -- -- --
2021-01-18 14:00:00 -- -- -- -- -- -- -- -- --
2021-01-18 13:00:00 -- -- -- -- -- -- -- -- --
2021-01-18 12:00:00 -- -- -- -- -- -- -- -- --
2021-01-18 11:00:00 -- -- -- -- -- -- -- -- --
2021-01-18 10:00:00 -- -- -- -- -- -- -- -- --
2021-01-18 09:00:00 -- -- -- -- -- -- -- -- --
2021-01-18 08:00:00 -- -- -- -- -- -- -- -- --
2021-01-18 07:00:00 -- -- -- -- -- -- -- -- --
2021-01-18 06:00:00 -- -- -- -- -- -- -- -- --
2021-01-18 05:00:00 -- -- -- -- -- -- -- -- --
2021-01-18 04:00:00 -- -- -- -- -- -- -- -- --
2021-01-18 03:00:00 -- -- -- -- -- -- -- -- --
2021-01-18 02:00:00 -- -- -- -- -- -- -- -- --
2021-01-18 01:00:00 -- -- -- -- -- -- -- -- --
2021-01-18 00:00:00 -- -- -- -- -- -- -- -- --
2021-01-17 23:00:00 10.8 19 Noroeste 37 Noroeste 0 -- -- 59
2021-01-17 22:00:00 10.6 24 Noroeste 37 Noroeste 0 -- -- 56
2021-01-17 21:00:00 9.9 18 Noroeste 34 Oeste 0 -- -- 55
2021-01-17 20:00:00 10.4 16 Noroeste 28 Noroeste 0 -- -- 50
2021-01-17 19:00:00 11.2 20 Noroeste 32 Noroeste 0 -- -- 48
2021-01-17 18:00:00 12.4 18 Noroeste 34 Oeste 0 -- -- 47
2021-01-17 17:00:00 13.2 17 Noroeste 33 Oeste 0 -- -- 44
2021-01-17 16:00:00 13.4 18 Noroeste 33 Noroeste 0 -- -- 43
2021-01-17 15:00:00 13.8 23 Noroeste 36 Noroeste 0 -- -- 39
2021-01-17 14:00:00 13.7 17 Noroeste 29 Noroeste 0 -- -- 36
2021-01-17 13:00:00 12.9 16 Noroeste 25 Norte 0 -- -- 37
2021-01-17 12:00:00 12.1 10 Noroeste 24 Oeste 0 -- -- 34
2021-01-17 11:00:00 11 16 Noroeste 27 Noroeste 0 -- -- 34
2021-01-17 10:00:00 8.7 12 Noroeste 19 Norte 0 -- -- 35
2021-01-17 09:00:00 4.1 3 Norte 17 Noroeste 0 -- -- 60
2021-01-17 08:00:00 6 9 Noroeste 17 Noroeste 0 -- -- 43
2021-01-17 07:00:00 6.6 5 Noroeste 18 Noroeste 0 -- -- 44
2021-01-17 06:00:00 7.1 10 Norte 18 Noroeste 0 -- -- 42
2021-01-17 05:00:00 6.9 9 Noroeste 21 Noroeste 0 -- -- 44
2021-01-17 04:00:00 7.2 15 Noroeste 26 Noroeste 0 -- -- 43
2021-01-17 03:00:00 7 10 Noroeste 18 Norte 0 -- -- 47
2021-01-17 02:00:00 6.5 5 Norte 14 Norte 0 -- -- 45
2021-01-17 01:00:00 6.7 4 Norte 13 Noroeste 0 -- -- 45
2021-01-17 00:00:00 7.2 4 Norte 18 Noroeste 0 -- -- 43
2021-01-16 23:00:00 6.8 3 Noroeste 10 Oeste 0 -- -- 42
2021-01-16 22:00:00 6.5 3 Noroeste 9 Oeste 0 -- -- 46
2021-01-16 21:00:00 6.6 2 Norte 9 Oeste 0 -- -- 46
2021-01-16 20:00:00 6.8 3 Noroeste 11 Norte 0 -- -- 44
2021-01-16 19:00:00 8 5 Norte 21 Oeste 0 -- -- 44
2021-01-16 18:00:00 9.6 9 Noroeste 22 Noroeste 0 -- -- 37
2021-01-16 17:00:00 10.4 9 Oeste 25 Noroeste 0 -- -- 35
2021-01-16 16:00:00 10.6 9 Noroeste 27 Oeste 0 -- -- 36
2021-01-16 15:00:00 10.8 10 Oeste 28 Oeste 0 -- -- 36
2021-01-16 14:00:00 10.6 11 Noroeste 21 Oeste 0 -- -- 38
2021-01-16 13:00:00 9.2 15 Noroeste 23 Noroeste 0 -- -- 42
2021-01-16 12:00:00 8.5 12 Noroeste 22 Noroeste 0 -- -- 46
2021-01-16 11:00:00 5.8 3 Noroeste 8 Norte 0 -- -- 59
2021-01-16 10:00:00 1.9 2 Nordeste 6 Norte 0 -- -- 76
2021-01-16 09:00:00 1.2 5 Noroeste 12 Norte 0 -- -- 78
2021-01-16 08:00:00 1.9 2 Norte 13 Oeste 0 -- -- 73
2021-01-16 07:00:00 3.8 6 Oeste 22 Noroeste 0 -- -- 62
2021-01-16 06:00:00 4.1 10 Oeste 26 Oeste 0 -- -- 61
2021-01-16 05:00:00 4.2 5 Sudeste 36 Noroeste 0 -- -- 61
2021-01-16 04:00:00 5.6 14 Noroeste 50 Noroeste 0 -- -- 56
2021-01-16 03:00:00 5.6 21 Norte 46 Norte 0 -- -- 57
2021-01-16 02:00:00 6.3 20 Noroeste 44 Noroeste 0 -- -- 54
2021-01-16 01:00:00 6.5 37 Noroeste 59 Noroeste 0 -- -- 57
2021-01-16 00:00:00 6.8 31 Noroeste 52 Noroeste 0 -- -- 51
2021-01-15 23:00:00 6.8 27 Noroeste 47 Noroeste 0 -- -- 53
2021-01-15 22:00:00 6.5 27 Noroeste 50 Noroeste 0 -- -- 59
2021-01-15 21:00:00 6.9 20 Noroeste 54 Noroeste 0 -- -- 56
2021-01-15 20:00:00 7.6 28 Noroeste 46 Noroeste 0 -- -- 52
2021-01-15 19:00:00 8.1 20 Noroeste 42 Noroeste 0 -- -- 50
2021-01-15 18:00:00 8.1 17 Noroeste 36 Oeste 0 -- -- 51
2021-01-15 17:00:00 8.5 24 Noroeste 51 Noroeste 0 -- -- 53
2021-01-15 16:00:00 9.2 23 Noroeste 48 Noroeste 0 -- -- 48
2021-01-15 15:00:00 9.5 30 Noroeste 50 Noroeste 0 -- -- 46
2021-01-15 14:00:00 8.9 23 Noroeste 51 Noroeste 0 -- -- 49
2021-01-15 13:00:00 8.2 27 Noroeste 53 Noroeste 0 -- -- 54
2021-01-15 12:00:00 7.9 32 Noroeste 52 Noroeste 0 -- -- 56
2021-01-15 11:00:00 7.5 31 Noroeste 48 Noroeste 0 -- -- 56
2021-01-15 10:00:00 6.6 22 Noroeste 43 Oeste 0 -- -- 60
2021-01-15 09:00:00 6.1 18 Noroeste 36 Oeste 0 -- -- 63
2021-01-15 08:00:00 6.6 19 Noroeste 41 Noroeste 0 -- -- 58
2021-01-15 07:00:00 6.9 19 Noroeste 40 Oeste 0 -- -- 57
2021-01-15 06:00:00 7.1 18 Noroeste 41 Oeste 0 -- -- 58
2021-01-15 05:00:00 7.8 21 Noroeste 36 Noroeste 0 -- -- 56
2021-01-15 04:00:00 8.1 22 Noroeste 39 Noroeste 0 -- -- 57
2021-01-15 03:00:00 8.3 21 Noroeste 43 Noroeste 0 -- -- 58
2021-01-15 02:00:00 9.1 23 Noroeste 44 Noroeste 0 -- -- 53
2021-01-15 01:00:00 9.2 24 Noroeste 45 Oeste 0 -- -- 61
2021-01-15 00:00:00 9.3 21 Noroeste 35 Noroeste 0 -- -- 65
2021-01-14 23:00:00 8.7 23 Noroeste 39 Norte 0 -- -- 65
2021-01-14 22:00:00 8.8 17 Noroeste 36 Norte 0 -- -- 64
2021-01-14 21:00:00 8.4 18 Noroeste 32 Oeste 0 -- -- 58
2021-01-14 20:00:00 9.3 15 Norte 38 Noroeste 0 -- -- 43
2021-01-14 19:00:00 8.9 13 Norte 27 Noroeste 0 -- -- 38
2021-01-14 18:00:00 8.9 17 Norte 32 Norte 0 -- -- 39
2021-01-14 17:00:00 9.3 19 Norte 36 Noroeste 0 -- -- 41
2021-01-14 16:00:00 10.9 19 Noroeste 34 Norte 0 -- -- 35
2021-01-14 15:00:00 11.8 14 Noroeste 19 Norte 0 -- -- 37
2021-01-14 14:00:00 11.9 4 Noroeste 13 Noroeste 0 -- -- 38
2021-01-14 13:00:00 10.7 8 Noroeste 17 Noroeste 0 -- -- 43
2021-01-14 12:00:00 9.8 8 Norte 21 Noroeste 0 -- -- 39
2021-01-14 11:00:00 8 8 Noroeste 22 Noroeste 0 -- -- 43
2021-01-14 10:00:00 5 8 Norte 18 Noroeste 0 -- -- 54
2021-01-14 09:00:00 1 0 Calma 5 Noroeste 0 -- -- 76
2021-01-14 08:00:00 1.5 2 Norte 6 Norte 0 -- -- 76
2021-01-14 07:00:00 1.6 3 Norte 10 Norte 0 -- -- 75
2021-01-14 06:00:00 2.2 3 Norte 9 Norte 0 -- -- 74
2021-01-14 05:00:00 2.9 4 Norte 11 Norte 0 -- -- 68
2021-01-14 04:00:00 0.7 2 Noroeste 5 Norte 0 -- -- 89
2021-01-14 03:00:00 0.6 3 Norte 5 Norte 0 -- -- 90
2021-01-14 02:00:00 0.9 2 Norte 5 Norte 0 -- -- 89
2021-01-14 01:00:00 0.7 0 Calma 3 Norte 0 -- -- 87
2021-01-14 00:00:00 1 0 Calma 7 Noroeste 0 -- -- 85
2021-01-13 23:00:00 1.6 3 Noroeste 9 Noroeste 0 -- -- 83
2021-01-13 22:00:00 1.9 3 Noroeste 5 Noroeste 0 -- -- 84
2021-01-13 21:00:00 2.4 0 Calma 4 Norte 0 -- -- 83
2021-01-13 20:00:00 3.5 0 Calma 4 Nordeste 0 -- -- 78
2021-01-13 19:00:00 5.2 0 Calma 10 Norte 0 -- -- 71
2021-01-13 18:00:00 7 6 Norte 15 Norte 0 -- -- 61
2021-01-13 17:00:00 7.6 4 Norte 10 Norte 0 -- -- 61
2021-01-13 16:00:00 9.2 3 Noroeste 15 Norte 0 -- -- 55
2021-01-13 15:00:00 9.5 11 Noroeste 20 Noroeste 0 -- -- 53
2021-01-13 14:00:00 9 12 Noroeste 25 Norte 0 -- -- 55
2021-01-13 13:00:00 8.4 14 Noroeste 23 Noroeste 0 -- -- 55
2021-01-13 12:00:00 7.8 12 Noroeste 27 Noroeste 0 -- -- 57
2021-01-13 11:00:00 6.6 14 Noroeste 28 Noroeste 0 -- -- 56
2021-01-13 10:00:00 5.2 10 Noroeste 20 Noroeste 0 -- -- 60
2021-01-13 09:00:00 3.6 9 Norte 16 Norte 0 -- -- 63
2021-01-13 08:00:00 3.4 9 Norte 17 Noroeste 0 -- -- 63
2021-01-13 07:00:00 3.3 10 Noroeste 31 Noroeste 0 -- -- 65
2021-01-13 06:00:00 3.7 13 Noroeste 22 Norte 0 -- -- 63
2021-01-13 05:00:00 4.1 11 Noroeste 22 Noroeste 0 -- -- 60
2021-01-13 04:00:00 4.2 14 Noroeste 27 Noroeste 0 -- -- 58
2021-01-13 03:00:00 4.7 15 Noroeste 29 Noroeste 0 -- -- 54
2021-01-13 02:00:00 3.9 8 Norte 17 Noroeste 0 -- -- 58
2021-01-13 01:00:00 3.7 3 Noroeste 11 Norte 0 -- -- 58
2021-01-13 00:00:00 1.8 3 Norte 9 Noroeste 0 -- -- 67
2021-01-12 23:00:00 1.2 0 Calma 5 Sur 0 -- -- 68
2021-01-12 22:00:00 2.1 2 Sur 6 Sudeste 0 -- -- 65
2021-01-12 21:00:00 3.7 0 Calma 17 Noroeste 0 -- -- 58
2021-01-12 20:00:00 -- -- -- -- -- -- -- -- --
2021-01-12 19:00:00 -- -- -- -- -- -- -- -- --
2021-01-12 18:00:00 -- -- -- -- -- -- -- -- --
2021-01-12 17:00:00 -- -- -- -- -- -- -- -- --
2021-01-12 16:00:00 -- -- -- -- -- -- -- -- --
2021-01-12 15:00:00 -- -- -- -- -- -- -- -- --
2021-01-12 14:00:00 -- -- -- -- -- -- -- -- --
2021-01-12 13:00:00 -- -- -- -- -- -- -- -- --
2021-01-12 12:00:00 -- -- -- -- -- -- -- -- --
2021-01-12 11:00:00 3.1 12 Norte 26 Noroeste 0 -- -- 51
2021-01-12 10:00:00 1.2 14 Norte 24 Noroeste 0 -- -- 53
2021-01-12 09:00:00 -0.4 14 Norte 24 Norte 0 -- -- 57
2021-01-12 08:00:00 -1.5 12 Noroeste 19 Noroeste 0 -- -- 61
2021-01-12 07:00:00 -2.1 8 Noroeste 17 Noroeste 0 -- -- 66
2021-01-12 06:00:00 -1.9 11 Noroeste 18 Noroeste 0 -- -- 67
2021-01-12 05:00:00 -1.7 10 Noroeste 17 Noroeste 0 -- -- 64
2021-01-12 04:00:00 -1.4 10 Noroeste 20 Noroeste 0 -- -- 63
2021-01-12 03:00:00 -1 9 Noroeste 22 Noroeste 0 -- -- 61
2021-01-12 02:00:00 -0.9 10 Noroeste 24 Noroeste 0 -- -- 62
2021-01-12 01:00:00 -0.7 13 Noroeste 24 Norte 0.2 -- -- 64
2021-01-12 00:00:00 -0.4 11 Noroeste 22 Noroeste 0 -- -- 63
2021-01-11 23:00:00 -0.2 12 Noroeste 21 Noroeste 0 -- -- 63
2021-01-11 22:00:00 0 11 Noroeste 22 Norte 0 -- -- 66
2021-01-11 21:00:00 0.1 11 Noroeste 21 Noroeste 0 -- -- 67
2021-01-11 20:00:00 0.3 11 Noroeste 25 Noroeste 0 -- -- 68
2021-01-11 19:00:00 0.6 9 Noroeste 22 Noroeste 0 -- -- 66
2021-01-11 18:00:00 1 8 Noroeste 21 Noroeste 0 -- -- 65
2021-01-11 17:00:00 1.5 8 Noroeste 21 Noroeste 0 -- -- 64
2021-01-11 16:00:00 1.9 12 Noroeste 26 Norte 0.4 -- -- 63
2021-01-11 15:00:00 2.7 14 Noroeste 28 Norte 0.8 -- -- 61
2021-01-11 14:00:00 2.8 15 Noroeste 27 Norte 1 -- -- 62
2021-01-11 13:00:00 2.5 14 Noroeste 23 Noroeste 0.8 -- -- 60
2021-01-11 12:00:00 2.2 11 Noroeste 23 Noroeste 0.4 -- -- 63
2021-01-11 11:00:00 1.5 10 Noroeste 24 Oeste 0 -- -- 65
2021-01-11 10:00:00 0.4 11 Noroeste 23 Noroeste 0 -- -- 68
2021-01-11 09:00:00 0 10 Noroeste 25 Oeste 0 -- -- 73
2021-01-11 08:00:00 0.1 10 Noroeste 24 Noroeste 0 -- -- 73
2021-01-11 07:00:00 0 8 Noroeste 14 Oeste 0 -- -- 78
2021-01-11 06:00:00 -0.4 3 Norte 14 Noroeste 0 -- -- 80
2021-01-11 05:00:00 -0.1 7 Noroeste 13 Noroeste 0 -- -- 80
2021-01-11 04:00:00 -0.1 7 Noroeste 14 Norte 0 -- -- 78
2021-01-11 03:00:00 0.1 7 Noroeste 18 Noroeste 0 -- -- 80
2021-01-11 02:00:00 0.2 6 Noroeste 12 Noroeste 0 -- -- 81
2021-01-11 01:00:00 0.6 7 Noroeste 17 Oeste 0 -- -- 80
2021-01-11 00:00:00 1.1 8 Noroeste 14 Noroeste 0.2 -- -- 78
2021-01-10 23:00:00 1.6 6 Noroeste 14 Oeste 0 -- -- 82
2021-01-10 22:00:00 1.5 7 Noroeste 13 Noroeste 0.2 -- -- 88
2021-01-10 21:00:00 1.7 0 Calma 6 Noroeste 0.2 -- -- 91
2021-01-10 20:00:00 1.8 0 Calma 4 Noroeste 0.2 -- -- 91
2021-01-10 19:00:00 2 0 Calma 6 Sudoeste 0.4 -- -- 91
2021-01-10 18:00:00 3 3 Noroeste 11 Norte 1 -- -- 84
2021-01-10 17:00:00 3.5 6 Noroeste 15 Oeste 1.4 -- -- 79
2021-01-10 16:00:00 4.1 5 Noroeste 13 Norte 2.4 -- -- 80
2021-01-10 15:00:00 4.1 4 Noroeste 13 Norte 2.2 -- -- 78
2021-01-10 14:00:00 3.7 4 Noroeste 10 Noroeste 2 -- -- 79
2021-01-10 13:00:00 3.3 5 Noroeste 9 Norte 1.8 -- -- 80
2021-01-10 12:00:00 2.9 3 Norte 12 Oeste 1 -- -- 79
2021-01-10 11:00:00 1.6 4 Noroeste 12 Noroeste 0.4 -- -- 83
2021-01-10 10:00:00 0.8 5 Norte 17 Noroeste 0.2 -- -- 85
2021-01-10 09:00:00 0.4 8 Noroeste 13 Norte 0 -- -- 86
2021-01-10 08:00:00 0.6 4 Noroeste 12 Noroeste 0 -- -- 86
2021-01-10 07:00:00 0.5 8 Noroeste 14 Noroeste 0.2 -- -- 86
2021-01-10 06:00:00 0.3 3 Noroeste 10 Noroeste 0 -- -- 90
2021-01-10 05:00:00 0.5 3 Noroeste 12 Noroeste 0 -- -- 88
2021-01-10 04:00:00 0.8 8 Noroeste 13 Noroeste 0.2 -- -- 88
2021-01-10 03:00:00 1 8 Noroeste 13 Noroeste 0.2 -- -- 90
2021-01-10 02:00:00 1 7 Noroeste 13 Noroeste 0 -- -- 95
2021-01-10 01:00:00 0.8 6 Noroeste 16 Noroeste 0 -- -- 100
2021-01-10 00:00:00 0.5 0 Calma 3 Norte 0.2 -- -- 99
2021-01-09 23:00:00 0.9 0 Calma 8 Norte 1 -- -- 98
2021-01-09 22:00:00 1.6 5 Norte 10 Noroeste 1 -- -- 99
2021-01-09 21:00:00 1.2 3 Noroeste 7 Noroeste 0.8 -- -- 100
2021-01-09 20:00:00 0.9 0 Calma 8 Oeste 0.6 -- -- 99
2021-01-09 19:00:00 0.4 0 Calma 3 Sudoeste 0.6 -- -- 99
2021-01-09 18:00:00 0.3 0 Calma 4 Este 1.2 -- -- 99
2021-01-09 17:00:00 0.4 0 Calma 4 Noroeste 1.4 -- -- 98
2021-01-09 16:00:00 0.5 0 Calma 3 Nordeste 1.8 -- -- 98
2021-01-09 15:00:00 0.7 0 Calma 2 Sur 2 -- -- 98
2021-01-09 14:00:00 1.1 0 Calma 3 Sur 1 -- -- 98
2021-01-09 13:00:00 1 0 Calma 3 Este 1 -- -- 99
2021-01-09 12:00:00 1 0 Calma 0 Calma 0.6 -- -- 100
2021-01-09 11:00:00 0.5 0 Calma 0 Calma 0.4 -- -- 100
2021-01-09 10:00:00 0.1 0 Calma -- -- 0.2 -- -- 99
2021-01-09 09:00:00 0 0 Calma -- -- 0 -- -- 99
2021-01-09 08:00:00 -0.1 0 Calma -- -- 0 -- -- 99
2021-01-09 07:00:00 -0.1 0 Calma -- -- 0 -- -- 99
2021-01-09 06:00:00 0 0 Calma 0 Calma 0 -- -- 99
2021-01-09 05:00:00 0 0 Calma -- -- 0 -- -- 99
2021-01-09 04:00:00 0.1 0 Calma -- -- 0.2 -- -- 99
2021-01-09 03:00:00 0.1 0 Calma -- -- 0.2 -- -- 99
2021-01-09 02:00:00 0.1 0 Calma -- -- 0 -- -- 99
2021-01-09 01:00:00 0.1 0 Calma -- -- 0.2 -- -- 99
2021-01-09 00:00:00 0 0 Calma 9 Sur 0.2 -- -- 98
2021-01-08 23:00:00 0.2 5 Sur 12 Sur 0 -- -- 98
2021-01-08 22:00:00 0.2 8 Sur 14 Sur 0.2 -- -- 98
2021-01-08 21:00:00 0.2 6 Sur 13 Sur 0.4 -- -- 98
2021-01-08 20:00:00 0.3 6 Sur 13 Sur 0.4 -- -- 98
2021-01-08 19:00:00 0.4 5 Sur 10 Sudeste 0.4 -- -- 98
2021-01-08 18:00:00 0.6 2 Sur 11 Sur 0.4 -- -- 97
2021-01-08 17:00:00 0.8 4 Sur 9 Sudoeste 0.8 -- -- 98
2021-01-08 16:00:00 1.1 3 Sudeste 6 Sudeste 0.6 -- -- 98
2021-01-08 15:00:00 0.9 4 Sudeste 11 Sudeste 0.8 -- -- 97
2021-01-08 14:00:00 0.9 0 Calma 2 Sudoeste 0.8 -- -- 97
2021-01-08 13:00:00 0.7 0 Calma 4 Noroeste 0.6 -- -- 97
2021-01-08 12:00:00 0.9 0 Calma 6 Oeste 0.8 -- -- 96
2021-01-08 11:00:00 1.2 0 Calma 5 Noroeste 0.6 -- -- 95
2021-01-08 10:00:00 1.1 3 Noroeste 9 Noroeste 0.2 -- -- 94
2021-01-08 09:00:00 0.9 3 Noroeste 9 Noroeste 0.2 -- -- 96
2021-01-08 08:00:00 0.8 2 Noroeste 6 Oeste 0.2 -- -- 97
2021-01-08 07:00:00 0.7 3 Noroeste 7 Noroeste 0 -- -- 98
2021-01-08 06:00:00 0.6 0 Calma 4 Noroeste 0 -- -- 98
2021-01-08 05:00:00 0.5 0 Calma 4 Noroeste 0.2 -- -- 98
2021-01-08 04:00:00 0.7 0 Calma 4 Noroeste 0.2 -- -- 98
2021-01-08 03:00:00 0.8 0 Calma 5 Oeste 0.2 -- -- 98
2021-01-08 02:00:00 0.7 0 Calma 3 Noroeste 0.2 -- -- 98
2021-01-08 01:00:00 0.7 2 Oeste 6 Noroeste 0.4 -- -- 98
2021-01-08 00:00:00 0.5 0 Calma 3 Sur 0.2 -- -- 98
2021-01-07 23:00:00 0.4 0 Calma 4 Sudeste 0.2 -- -- 98
2021-01-07 22:00:00 0.4 0 Calma 2 Sudoeste 0.4 -- -- 97
2021-01-07 21:00:00 0.5 0 Calma 4 Este 0.4 -- -- 97
2021-01-07 20:00:00 -- -- -- -- -- -- -- -- --
2021-01-07 19:00:00 0.9 3 Noroeste 6 Noroeste 1 -- -- 96
2021-01-07 18:00:00 1 3 Noroeste 9 Noroeste 1 -- -- 96
2021-01-07 17:00:00 1.4 0 Calma 8 Oeste 1.2 -- -- 93
2021-01-07 16:00:00 2 2 Oeste 10 Norte 0.6 -- -- 91
2021-01-07 15:00:00 2.4 0 Calma 10 Norte 0.4 -- -- 89
2021-01-07 14:00:00 2.9 4 Noroeste 10 Noroeste 0 -- -- 83
2021-01-07 13:00:00 3.3 3 Sudoeste 12 Noroeste 0 -- -- 79
2021-01-07 12:00:00 3.2 0 Calma 8 Noroeste 0 -- -- 75
2021-01-07 11:00:00 2.4 3 Noroeste 6 Noroeste 0 -- -- 78
2021-01-07 10:00:00 1.7 5 Noroeste 8 Norte 0 -- -- 80
2021-01-07 09:00:00 1.3 0 Calma 9 Noroeste 0 -- -- 82
2021-01-07 08:00:00 1.2 0 Calma 8 Noroeste 0 -- -- 84
2021-01-07 07:00:00 1.3 3 Noroeste 9 Noroeste 0 -- -- 82
2021-01-07 06:00:00 1 0 Calma 4 Oeste 0 -- -- 86
2021-01-07 05:00:00 1.2 2 Sudoeste 6 Noroeste 0 -- -- 82
2021-01-07 04:00:00 1.1 2 Sudeste 4 Sudeste 0 -- -- 83
2021-01-07 03:00:00 1 0 Calma 9 Norte 0 -- -- 83
2021-01-07 02:00:00 0.9 4 Noroeste 8 Noroeste 0 -- -- 83
2021-01-07 01:00:00 0.6 2 Noroeste 8 Noroeste 0 -- -- 86
2021-01-07 00:00:00 0.7 5 Noroeste 8 Noroeste 0 -- -- 85
2021-01-06 23:00:00 0.6 0 Calma 9 Noroeste 0 -- -- 84
2021-01-06 22:00:00 0.9 6 Noroeste 10 Noroeste 0 -- -- 85
2021-01-06 21:00:00 0.3 0 Calma 2 Sur 0 -- -- 88
2021-01-06 20:00:00 1.3 0 Calma 4 Este 0 -- -- 84
2021-01-06 19:00:00 2.8 0 Calma 13 Sur 0 -- -- 78
2021-01-06 18:00:00 4.1 8 Sur 26 Sur 0 -- -- 72
2021-01-06 17:00:00 5.3 12 Sur 24 Sur 0 -- -- 61
2021-01-06 16:00:00 6.6 11 Sur 23 Sur 0 -- -- 49
2021-01-06 15:00:00 8.2 5 Sur 7 Sur 0 -- -- 41
2021-01-06 14:00:00 8.3 4 Sur 8 Sur 0 -- -- 41
2021-01-06 13:00:00 6.3 3 Sudoeste 6 Sur 0 -- -- 45
2021-01-06 12:00:00 2.6 0 Calma 4 Oeste 0 -- -- 60
2021-01-06 11:00:00 -0.2 0 Calma 10 Noroeste 0 -- -- 71
2021-01-06 10:00:00 -2.6 5 Noroeste 12 Noroeste 0 -- -- 80
2021-01-06 09:00:00 -3.6 8 Noroeste 15 Norte 0 -- -- 83
2021-01-06 08:00:00 -3.7 8 Norte 15 Noroeste 0 -- -- 83
2021-01-06 07:00:00 -3.1 5 Noroeste 10 Noroeste 0 -- -- 81
2021-01-06 06:00:00 -2.9 8 Norte 14 Noroeste 0 -- -- 81
2021-01-06 05:00:00 -2.7 7 Noroeste 13 Noroeste 0 -- -- 80
2021-01-06 04:00:00 -2.6 9 Noroeste 14 Noroeste 0 -- -- 81
2021-01-06 03:00:00 -2.1 7 Noroeste 14 Noroeste 0 -- -- 80
2021-01-06 02:00:00 -1.7 4 Noroeste 12 Norte 0 -- -- 79
2021-01-06 01:00:00 -1.4 4 Oeste 9 Oeste 0 -- -- 78
2021-01-06 00:00:00 -1.2 5 Norte 10 Norte 0 -- -- 75
2021-01-05 23:00:00 -0.7 2 Noroeste 8 Noroeste 0 -- -- 75
2021-01-05 22:00:00 -0.1 2 Norte 8 Noroeste 0 -- -- 72
2021-01-05 21:00:00 1.3 2 Noroeste 15 Noroeste 0 -- -- 65
2021-01-05 20:00:00 2.1 0 Calma 10 Noroeste 0 -- -- 64
2021-01-05 19:00:00 3.9 7 Noroeste 15 Noroeste 0 -- -- 56
2021-01-05 18:00:00 5.1 9 Noroeste 22 Noroeste 0 -- -- 52
2021-01-05 17:00:00 5.8 11 Noroeste 28 Oeste 0 -- -- 47
2021-01-05 16:00:00 6.1 14 Noroeste 31 Oeste 0 -- -- 45
2021-01-05 15:00:00 6.9 15 Noroeste 31 Noroeste 0 -- -- 44
2021-01-05 14:00:00 6.3 20 Noroeste 36 Oeste 0 -- -- 47
2021-01-05 13:00:00 5.7 19 Noroeste 31 Oeste 0 -- -- 49
2021-01-05 12:00:00 5 14 Noroeste 22 Noroeste 0 -- -- 52
2021-01-05 11:00:00 4.3 4 Oeste 12 Oeste 0 -- -- 52
2021-01-05 10:00:00 2.1 6 Noroeste 20 Noroeste 0 -- -- 63
2021-01-05 09:00:00 1 14 Noroeste 21 Norte 0 -- -- 67
2021-01-05 08:00:00 0.6 0 Calma 18 Norte 0 -- -- 68
2021-01-05 07:00:00 1.4 12 Noroeste 32 Norte 0 -- -- 64
2021-01-05 06:00:00 2.3 19 Noroeste 34 Noroeste 0 -- -- 62
2021-01-05 05:00:00 2.1 13 Noroeste 27 Noroeste 0 -- -- 63
2021-01-05 04:00:00 2.3 14 Noroeste 27 Noroeste 0 -- -- 65
2021-01-05 03:00:00 2.6 18 Noroeste 30 Noroeste 0 -- -- 62
2021-01-05 02:00:00 -1 0 Calma 7 Noroeste 0 -- -- 83
2021-01-05 01:00:00 -1.1 2 Sur 8 Sudeste 0 -- -- 82
2021-01-05 00:00:00 -0.6 0 Calma 9 Este 0 -- -- 76
2021-01-04 23:00:00 -0.7 0 Calma 7 Este 0 -- -- 77
2021-01-04 22:00:00 -0.4 0 Calma 5 Este 0 -- -- 71
2021-01-04 21:00:00 0.4 0 Calma 3 Oeste 0 -- -- 68
2021-01-04 20:00:00 2.2 0 Calma 9 Noroeste 0 -- -- 61
2021-01-04 19:00:00 3.6 0 Calma 18 Noroeste 0 -- -- 52
2021-01-04 18:00:00 5.1 12 Noroeste 22 Oeste 0 -- -- 48
2021-01-04 17:00:00 5.8 8 Noroeste 32 Noroeste 0 -- -- 45
2021-01-04 16:00:00 6.4 16 Noroeste 31 Noroeste 0 -- -- 42
2021-01-04 15:00:00 6.9 20 Noroeste 40 Noroeste 0 -- -- 43
2021-01-04 14:00:00 6.4 22 Noroeste 37 Noroeste 0 -- -- 45
2021-01-04 13:00:00 5.9 18 Noroeste 40 Oeste 0 -- -- 49
2021-01-04 12:00:00 5.4 21 Noroeste 41 Noroeste 0 -- -- 49
2021-01-04 11:00:00 4.9 11 Noroeste 27 Norte 0 -- -- 54
2021-01-04 10:00:00 1 0 Calma 6 Nordeste 0 -- -- 80
2021-01-04 09:00:00 0.3 3 Oeste 15 Norte 0 -- -- 78
2021-01-04 08:00:00 1.1 10 Norte 18 Noroeste 0 -- -- 74
2021-01-04 07:00:00 1.4 8 Noroeste 17 Norte 0 -- -- 71
2021-01-04 06:00:00 2.4 12 Norte 28 Noroeste 0 -- -- 66
2021-01-04 05:00:00 2.9 18 Noroeste 30 Noroeste 0 -- -- 61
2021-01-04 04:00:00 3.3 14 Noroeste 31 Noroeste 0 -- -- 61
2021-01-04 03:00:00 3.4 17 Noroeste 31 Noroeste 0 -- -- 62
2021-01-04 02:00:00 3.7 15 Noroeste 28 Noroeste 0 -- -- 59
2021-01-04 01:00:00 4 14 Noroeste 24 Oeste 0 -- -- 62
2021-01-04 00:00:00 2.3 2 Noroeste 15 Noroeste 0 -- -- 68
2021-01-03 23:00:00 4.3 12 Noroeste 30 Oeste 0 -- -- 56
2021-01-03 22:00:00 4.8 12 Noroeste 26 Oeste 0 -- -- 56
2021-01-03 21:00:00 5.1 9 Noroeste 28 Oeste 0 -- -- 55
2021-01-03 20:00:00 5.6 18 Noroeste 35 Norte 0 -- -- 55
2021-01-03 19:00:00 5.8 18 Noroeste 33 Noroeste 0 -- -- 54
2021-01-03 18:00:00 6.2 13 Noroeste 32 Oeste 0 -- -- 53
2021-01-03 17:00:00 6.7 17 Noroeste 44 Noroeste 0 -- -- 49
2021-01-03 16:00:00 6.7 22 Noroeste 41 Norte 0 -- -- 48
2021-01-03 15:00:00 6.9 27 Noroeste 55 Norte 0 -- -- 49
2021-01-03 14:00:00 6.4 33 Noroeste 52 Noroeste 0 -- -- 52
2021-01-03 13:00:00 5.6 31 Noroeste 52 Noroeste 0 -- -- 53
2021-01-03 12:00:00 5.2 29 Noroeste 49 Noroeste 0 -- -- 52
2021-01-03 11:00:00 4.2 20 Noroeste 43 Noroeste 0 -- -- 55
2021-01-03 10:00:00 3 18 Noroeste 50 Oeste 0 -- -- 58
2021-01-03 09:00:00 2.2 17 Noroeste 48 Oeste 0 -- -- 59
2021-01-03 08:00:00 1.7 28 Noroeste 56 Oeste 0 -- -- 60
2021-01-03 07:00:00 1.4 31 Noroeste 56 Noroeste 0 -- -- 55
2021-01-03 06:00:00 1.3 23 Noroeste 47 Oeste 0 -- -- 55
2021-01-03 05:00:00 1.3 18 Noroeste 47 Noroeste 0 -- -- 56
2021-01-03 04:00:00 1.3 24 Noroeste 49 Noroeste 0 -- -- 58
2021-01-03 03:00:00 1.9 22 Noroeste 49 Oeste -- -- -- 57
2021-01-03 02:00:00 2.2 20 Noroeste 49 Noroeste 0 -- -- 57
2021-01-03 01:00:00 2.8 26 Noroeste 53 Noroeste 0 -- -- 55
2021-01-03 00:00:00 3 28 Noroeste 63 Noroeste 0 -- -- 55
2021-01-02 23:00:00 2.8 21 Noroeste 50 Oeste 0 -- -- 53
2021-01-02 22:00:00 2.7 24 Noroeste 51 Noroeste 0 -- -- 55
2021-01-02 21:00:00 2.7 28 Noroeste 55 Noroeste 0 -- -- 55
2021-01-02 20:00:00 2.9 23 Noroeste 41 Noroeste 0 -- -- 53
2021-01-02 19:00:00 3.2 26 Noroeste 53 Norte 0 -- -- 51
2021-01-02 18:00:00 3.7 23 Noroeste 51 Noroeste 0 -- -- 52
2021-01-02 17:00:00 4.1 31 Noroeste 51 Norte 0 -- -- 53
2021-01-02 16:00:00 4.4 33 Noroeste 57 Noroeste 0 -- -- 54
2021-01-02 15:00:00 5.3 25 Noroeste 51 Norte 0 -- -- 56
2021-01-02 14:00:00 4.9 28 Noroeste 51 Noroeste 0 -- -- 54